Time;durP1;ratioP1;P1;durP2;ratioP2;P2;SDS_P1;SDS_P2;PMS_P1;PMS_P2;Temp;Humidity;BMP_temperature;BMP_pressure;BME280_temperature;BME280_humidity;BME280_pressure;Samples;Min_cycle;Max_cycle;Signal;HPM_P1;HPM_P2
2022/10/12 00:00:23;;;;;;;6.37;3.13;;;;;;;8.46;100.00;102731.53;5023148;28;20257;-74
2022/10/12 00:02:48;;;;;;;5.43;2.50;;;;;;;5.74;100.00;102291.06;5024426;28;20212;-74
2022/10/12 00:05:13;;;;;;;4.43;2.80;;;;;;;6.62;100.00;102451.38;5023123;28;20188;-75
2022/10/12 00:07:39;;;;;;;5.97;2.70;;;;;;;7.48;100.00;102610.16;5024219;28;20208;-74
2022/10/12 00:10:04;;;;;;;5.40;2.70;;;;;;;5.70;100.00;102241.72;5023225;28;20698;-74
2022/10/12 00:12:30;;;;;;;4.10;2.73;;;;;;;6.67;100.00;102458.00;5019981;28;20191;-74
2022/10/12 00:14:55;;;;;;;4.40;2.60;;;;;;;5.83;100.00;102326.69;5018650;28;20189;-74
2022/10/12 00:17:21;;;;;;;9.20;3.10;;;;;;;5.57;100.00;102297.81;5016952;28;20299;-75
2022/10/12 00:19:48;;;;;;;5.60;3.00;;;;;;;4.88;100.00;102152.00;5018763;28;20268;-74
2022/10/12 00:22:14;;;;;;;3.47;2.43;;;;;;;8.32;100.00;102696.13;5017031;28;20195;-74
2022/10/12 00:24:39;;;;;;;5.67;3.07;;;;;;;6.22;100.00;102383.72;5013705;28;20467;-76
2022/10/12 00:29:50;;;;;;;3.10;2.37;;;;;;;6.01;100.00;102345.59;5056675;28;20218;-74
2022/10/12 00:32:19;;;;;;;5.17;2.80;;;;;;;5.30;100.00;102221.16;5061859;28;20940;-74
2022/10/12 00:34:52;;;;;;;7.07;2.93;;;;;;;6.49;100.00;102448.94;5060423;28;20867;-74
2022/10/12 00:37:21;;;;;;;4.80;2.87;;;;;;;6.57;100.00;102420.66;5061114;28;20803;-75
2022/10/12 00:39:54;;;;;;;7.10;3.80;;;;;;;6.62;100.00;102414.06;5062584;28;20524;-74
2022/10/12 00:42:28;;;;;;;4.63;2.77;;;;;;;6.82;100.00;102453.16;5042490;28;20434;-73
2022/10/12 00:44:54;;;;;;;5.93;3.00;;;;;;;7.57;100.00;102577.28;5041389;28;20465;-74
2022/10/12 00:47:35;;;;;;;4.70;2.93;;;;;;;7.61;100.00;102620.59;5042182;28;21752;-74
2022/10/12 00:50:23;;;;;;;5.73;3.27;;;;;;;8.32;100.00;102663.22;5057679;28;20591;-75
2022/10/12 00:52:57;;;;;;;5.30;3.10;;;;;;;8.40;100.00;102659.88;5060309;28;20473;-74
2022/10/12 00:55:25;;;;;;;5.00;2.70;;;;;;;8.50;100.00;102660.72;5057093;28;20486;-74
2022/10/12 00:57:53;;;;;;;4.13;3.00;;;;;;;8.40;100.00;102654.53;5055927;28;20452;-74
2022/10/12 01:00:20;;;;;;;6.57;3.10;;;;;;;8.44;100.00;102656.78;5055281;28;20445;-75
2022/10/12 01:02:49;;;;;;;6.23;3.50;;;;;;;7.90;100.00;102557.41;5043886;28;20832;-74
2022/10/12 01:05:16;;;;;;;6.43;2.80;;;;;;;8.39;100.00;102651.03;5057677;28;20512;-74
2022/10/12 01:07:41;;;;;;;5.30;3.40;;;;;;;7.97;100.00;102546.97;5056267;28;20437;-74
2022/10/12 01:10:07;;;;;;;6.70;3.40;;;;;;;8.48;100.00;102660.03;5043337;28;20445;-74
2022/10/12 01:12:34;;;;;;;6.70;2.60;;;;;;;8.38;100.00;102663.53;5053064;28;20221;-74
2022/10/12 01:15:00;;;;;;;4.57;2.80;;;;;;;8.31;100.00;102650.84;5058950;28;20966;-74
2022/10/12 01:17:58;;;;;;;5.03;2.97;;;;;;;8.46;100.00;102665.50;5059233;28;20480;-74
2022/10/12 01:20:41;;;;;;;5.93;3.67;;;;;;;8.37;100.00;102666.31;5040326;28;20674;-74
2022/10/12 01:23:16;;;;;;;6.57;2.73;;;;;;;8.42;100.00;102660.56;5063494;28;20456;-74
2022/10/12 01:26:00;;;;;;;6.87;3.37;;;;;;;8.45;100.00;102657.63;5058629;28;20959;-75
2022/10/12 01:29:18;;;;;;;4.33;2.60;;;;;;;8.03;100.00;102613.22;5041843;28;20446;-74
2022/10/12 01:32:04;;;;;;;6.53;3.10;;;;;;;8.22;100.00;102624.94;5007884;28;20433;-75
2022/10/12 01:34:44;;;;;;;6.43;3.00;;;;;;;8.46;100.00;102665.50;5048979;28;20463;-75
2022/10/12 01:37:13;;;;;;;4.70;3.07;;;;;;;8.10;100.00;102590.31;5041888;28;20441;-76
2022/10/12 01:40:10;;;;;;;5.50;2.73;;;;;;;8.41;100.00;102649.03;5058168;28;20528;-75
2022/10/12 01:42:39;;;;;;;5.30;2.63;;;;;;;8.06;100.00;102620.97;5041301;28;20480;-75
2022/10/12 01:45:17;;;;;;;2.90;2.60;;;;;;;8.26;100.00;102600.44;5036984;28;20468;-74
2022/10/12 01:47:51;;;;;;;3.27;2.13;;;;;;;8.48;100.00;102655.53;5062517;28;20445;-75
2022/10/12 01:50:20;;;;;;;4.10;2.67;;;;;;;8.40;100.00;102611.75;5063240;28;20441;-75
2022/10/12 01:52:57;;;;;;;6.17;2.40;;;;;;;8.53;100.00;102644.38;5047668;28;20861;-75
2022/10/12 01:55:28;;;;;;;5.57;2.70;;;;;;;8.22;100.00;102632.97;5063531;28;20447;-75
2022/10/12 01:58:15;;;;;;;3.87;2.83;;;;;;;8.19;100.00;102647.44;5064931;28;20458;-75
2022/10/12 02:00:48;;;;;;;4.73;2.17;;;;;;;7.95;100.00;102620.25;5064416;28;20805;-75
2022/10/12 02:03:33;;;;;;;4.03;2.27;;;;;;;7.98;100.00;102644.84;5062589;28;20476;-75
2022/10/12 02:06:12;;;;;;;4.90;2.40;;;;;;;8.12;100.00;102628.44;5065589;28;20480;-75
2022/10/12 02:08:51;;;;;;;5.37;2.60;;;;;;;8.00;100.00;102634.88;5066174;28;20441;-75
2022/10/12 02:11:19;;;;;;;3.23;2.07;;;;;;;7.53;100.00;102589.22;5043184;28;20468;-75
2022/10/12 02:13:53;;;;;;;4.17;2.30;;;;;;;7.54;100.00;102577.56;5066066;28;20456;-75
2022/10/12 02:16:24;;;;;;;2.60;2.13;;;;;;;7.72;100.00;102628.47;5046811;28;20501;-75
2022/10/12 02:18:53;;;;;;;3.30;2.63;;;;;;;7.47;100.00;102592.44;5064225;28;20981;-75
2022/10/12 02:21:26;;;;;;;3.60;2.30;;;;;;;7.58;100.00;102632.41;5062095;28;20477;-75
2022/10/12 02:23:55;;;;;;;3.00;2.00;;;;;;;7.48;100.00;102627.00;5062946;28;20469;-75
2022/10/12 02:26:21;;;;;;;6.23;2.30;;;;;;;7.12;100.00;102568.84;5063486;28;20441;-75
2022/10/12 02:28:48;;;;;;;5.57;2.07;;;;;;;6.91;100.00;102529.69;5065821;28;20441;-75
2022/10/12 02:31:35;;;;;;;3.23;2.23;;;;;;;7.73;100.00;102622.19;5060662;28;20448;-75
2022/10/12 02:34:10;;;;;;;5.03;2.00;;;;;;;7.74;100.00;102605.16;5064955;28;20821;-75
2022/10/12 02:36:39;;;;;;;4.00;2.13;;;;;;;6.61;100.00;102468.38;5066463;28;20425;-75
2022/10/12 02:39:11;;;;;;;3.33;1.87;;;;;;;7.73;100.00;102595.47;5065043;28;20429;-75
2022/10/12 02:41:46;;;;;;;2.60;1.80;;;;;;;7.21;100.00;102550.19;5066991;28;20433;-75
2022/10/12 02:44:15;;;;;;;2.30;2.10;;;;;;;7.39;100.00;102587.78;5065091;28;20978;-75
2022/10/12 02:46:43;;;;;;;3.47;1.90;;;;;;;7.01;100.00;102527.94;5062085;28;20510;-75
2022/10/12 02:49:11;;;;;;;2.70;2.03;;;;;;;7.15;100.00;102568.59;5043978;28;20578;-75
2022/10/12 02:51:39;;;;;;;2.20;1.67;;;;;;;7.16;100.00;102575.59;5048892;28;20428;-75
2022/10/12 02:54:04;;;;;;;3.00;1.67;;;;;;;7.16;100.00;102567.59;5073539;28;20544;-75
2022/10/12 02:56:30;;;;;;;2.83;2.03;;;;;;;7.38;100.00;102596.78;5069842;28;21032;-75
2022/10/12 02:58:55;;;;;;;2.77;1.73;;;;;;;6.78;100.00;102521.09;5059494;28;20691;-75
2022/10/12 03:01:21;;;;;;;3.57;2.57;;;;;;;7.16;100.00;102596.94;5075150;28;20265;-75
2022/10/12 03:03:46;;;;;;;2.40;1.80;;;;;;;6.88;100.00;102527.28;5072614;28;20214;-75
2022/10/12 03:06:12;;;;;;;2.33;1.63;;;;;;;7.56;100.00;102583.63;5048170;28;20281;-75
2022/10/12 03:08:38;;;;;;;2.63;2.20;;;;;;;7.11;100.00;102556.47;5066044;28;20217;-75
2022/10/12 03:11:05;;;;;;;2.80;2.30;;;;;;;7.31;100.00;102592.94;5050487;28;20195;-74
2022/10/12 03:13:31;;;;;;;2.27;1.53;;;;;;;6.86;100.00;102507.94;5052153;28;20453;-75
2022/10/12 03:16:04;;;;;;;1.83;1.73;;;;;;;6.33;100.00;102439.63;5065063;28;20449;-75
2022/10/12 03:18:30;;;;;;;1.90;1.80;;;;;;;7.33;100.00;102590.16;5067427;28;20555;-75
2022/10/12 03:20:56;;;;;;;2.50;1.90;;;;;;;7.17;100.00;102577.28;5065936;28;20438;-75
2022/10/12 03:23:21;;;;;;;2.00;1.80;;;;;;;7.23;100.00;102569.59;5049431;28;20480;-75
2022/10/12 03:25:47;;;;;;;3.30;1.80;;;;;;;7.30;100.00;102582.41;5049667;28;20909;-75
2022/10/12 03:28:12;;;;;;;2.53;1.97;;;;;;;6.97;100.00;102584.34;5048017;28;20202;-75
2022/10/12 03:30:38;;;;;;;3.60;1.83;;;;;;;6.57;100.00;102513.13;5050656;28;20568;-75
2022/10/12 03:33:03;;;;;;;2.17;1.97;;;;;;;6.92;100.00;102573.25;5052724;28;20648;-75
2022/10/12 03:35:28;;;;;;;1.87;1.60;;;;;;;6.31;100.00;102502.84;5074823;28;20593;-75
2022/10/12 03:37:54;;;;;;;3.53;1.83;;;;;;;7.08;100.00;102543.41;5061184;28;20210;-74
2022/10/12 03:40:19;;;;;;;4.83;1.80;;;;;;;6.89;100.00;102574.34;5045790;28;20660;-75
2022/10/12 03:42:44;;;;;;;2.53;1.70;;;;;;;6.25;100.00;102470.53;5066170;28;20187;-75
2022/10/12 03:45:11;;;;;;;2.70;1.80;;;;;;;6.81;100.00;102570.66;5069644;28;20740;-74
2022/10/12 03:47:37;;;;;;;2.67;2.10;;;;;;;6.97;100.00;102595.88;5068517;28;20189;-74
2022/10/12 03:50:03;;;;;;;3.90;1.83;;;;;;;7.05;100.00;102597.03;5047057;28;20516;-75
2022/10/12 03:52:28;;;;;;;2.40;1.50;;;;;;;6.52;100.00;102531.31;5050676;28;20190;-75
2022/10/12 03:54:54;;;;;;;3.10;1.80;;;;;;;7.13;100.00;102610.56;5051256;28;21021;-75
2022/10/12 03:57:19;;;;;;;2.83;2.00;;;;;;;7.17;100.00;102572.78;5066362;28;20191;-76
2022/10/12 03:59:44;;;;;;;3.57;1.87;;;;;;;6.74;100.00;102484.97;5066714;28;20194;-75
2022/10/12 04:02:10;;;;;;;1.83;1.57;;;;;;;6.97;100.00;102592.34;5066041;28;20571;-75
2022/10/12 04:04:35;;;;;;;1.93;1.60;;;;;;;6.58;100.00;102538.78;5065222;28;20327;-75
2022/10/12 04:07:01;;;;;;;3.57;1.50;;;;;;;7.04;100.00;102580.19;5063326;28;20252;-75
2022/10/12 04:09:26;;;;;;;3.60;1.67;;;;;;;6.87;100.00;102568.28;5068320;28;20190;-75
2022/10/12 04:11:51;;;;;;;4.27;1.90;;;;;;;6.75;100.00;102559.53;5066961;28;20675;-75
2022/10/12 04:14:17;;;;;;;4.03;1.50;;;;;;;6.47;100.00;102489.06;5068582;28;20206;-75
2022/10/12 04:16:42;;;;;;;2.93;1.70;;;;;;;6.96;100.00;102559.50;5064852;28;20190;-75
2022/10/12 04:19:12;;;;;;;1.83;1.47;;;;;;;6.81;100.00;102549.31;5066521;28;20229;-75
2022/10/12 04:21:38;;;;;;;2.30;1.50;;;;;;;6.84;100.00;102557.06;5048103;28;20211;-75
2022/10/12 04:24:03;;;;;;;2.20;1.70;;;;;;;6.44;100.00;102520.47;5065926;28;21002;-75
2022/10/12 04:26:29;;;;;;;2.67;1.73;;;;;;;6.79;100.00;102558.28;5062268;28;20927;-75
2022/10/12 04:28:54;;;;;;;3.10;1.80;;;;;;;6.75;100.00;102532.84;5067126;28;20202;-75
2022/10/12 04:31:20;;;;;;;2.17;1.73;;;;;;;6.77;100.00;102546.06;5055898;28;20191;-75
2022/10/12 04:33:45;;;;;;;2.37;2.07;;;;;;;6.42;100.00;102472.63;5046308;28;20198;-75
2022/10/12 04:36:10;;;;;;;2.93;1.67;;;;;;;6.93;100.00;102556.25;5064903;28;20210;-75
2022/10/12 04:38:39;;;;;;;3.30;2.20;;;;;;;6.98;100.00;102570.03;5047780;28;20191;-75
2022/10/12 04:41:07;;;;;;;5.37;2.10;;;;;;;6.82;100.00;102548.34;5062442;28;20644;-75
2022/10/12 04:43:32;;;;;;;7.20;2.40;;;;;;;6.85;100.00;102559.56;5061363;28;20469;-75
2022/10/12 04:45:59;;;;;;;4.77;2.30;;;;;;;6.94;100.00;102584.59;5044803;28;20488;-75
2022/10/12 04:48:25;;;;;;;3.70;2.10;;;;;;;6.33;100.00;102463.59;5063755;28;20534;-75
2022/10/12 04:50:51;;;;;;;4.00;2.33;;;;;;;7.13;100.00;102579.38;5060527;28;20445;-75
2022/10/12 04:53:19;;;;;;;3.40;2.50;;;;;;;7.05;100.00;102595.19;5051713;28;20473;-75
2022/10/12 04:55:45;;;;;;;3.53;2.10;;;;;;;6.60;100.00;102504.00;5044091;28;20192;-75
2022/10/12 04:58:10;;;;;;;6.73;2.47;;;;;;;6.93;100.00;102553.59;5058948;28;20522;-75
2022/10/12 05:00:36;;;;;;;6.50;2.57;;;;;;;6.55;100.00;102499.06;5054808;28;20276;-75
2022/10/12 05:03:01;;;;;;;4.20;2.57;;;;;;;6.84;100.00;102554.38;5045696;28;23616;-76
2022/10/12 05:05:26;;;;;;;6.50;2.63;;;;;;;5.90;100.00;102429.03;5043278;28;20205;-74
2022/10/12 05:07:54;;;;;;;5.60;2.87;;;;;;;6.86;100.00;102585.28;5062983;28;20676;-74
2022/10/12 05:10:19;;;;;;;5.40;2.43;;;;;;;6.12;100.00;102452.09;5060662;28;20201;-75
2022/10/12 05:12:45;;;;;;;7.17;2.73;;;;;;;6.69;100.00;102556.56;5057947;28;20818;-75
2022/10/12 05:15:10;;;;;;;6.03;2.80;;;;;;;6.88;100.00;102580.66;5062736;28;20211;-75
2022/10/12 05:17:36;;;;;;;4.30;2.30;;;;;;;6.94;100.00;102582.81;5045907;28;20854;-76
2022/10/12 05:20:01;;;;;;;6.40;2.60;;;;;;;6.91;100.00;102583.03;5064328;28;20191;-74
2022/10/12 05:22:26;;;;;;;8.20;3.33;;;;;;;6.42;100.00;102499.28;5049740;28;20254;-75
2022/10/12 05:24:52;;;;;;;7.20;3.30;;;;;;;6.41;100.00;102499.41;5046924;28;20223;-75
2022/10/12 05:27:17;;;;;;;3.33;2.70;;;;;;;6.39;100.00;102498.69;5064753;28;20716;-74
2022/10/12 05:29:43;;;;;;;4.20;3.13;;;;;;;6.12;100.00;102494.72;5062877;28;20191;-74
2022/10/12 05:32:08;;;;;;;6.00;3.13;;;;;;;6.31;100.00;102524.19;5050332;28;20240;-75
2022/10/12 05:34:33;;;;;;;5.33;2.70;;;;;;;6.56;100.00;102528.25;5068338;28;20207;-75
2022/10/12 05:36:59;;;;;;;5.83;3.23;;;;;;;6.94;100.00;102582.81;5046662;28;20179;-75
2022/10/12 05:39:24;;;;;;;5.30;2.80;;;;;;;6.59;100.00;102531.63;5062580;28;20260;-75
2022/10/12 05:41:53;;;;;;;5.93;2.83;;;;;;;5.68;100.00;102387.41;5045463;28;20251;-75
2022/10/12 05:44:18;;;;;;;4.10;2.70;;;;;;;6.75;100.00;102548.03;5062217;28;20215;-75
2022/10/12 05:46:44;;;;;;;4.93;3.00;;;;;;;6.51;100.00;102503.00;5062412;28;20933;-75
2022/10/12 05:49:09;;;;;;;5.43;2.80;;;;;;;6.83;100.00;102569.56;5064142;28;20195;-75
2022/10/12 05:51:34;;;;;;;6.73;3.60;;;;;;;6.70;100.00;102552.91;5045472;28;20265;-75
2022/10/12 05:54:00;;;;;;;5.60;3.23;;;;;;;6.88;100.00;102574.47;5048113;28;20207;-75
2022/10/12 05:56:25;;;;;;;12.03;3.63;;;;;;;6.33;100.00;102516.03;5042278;28;20191;-75
2022/10/12 05:58:51;;;;;;;6.70;3.00;;;;;;;6.53;100.00;102543.66;5066434;28;20190;-75
2022/10/12 06:01:16;;;;;;;6.83;3.30;;;;;;;6.77;100.00;102565.59;5046080;28;20225;-74
2022/10/12 06:03:42;;;;;;;6.17;3.17;;;;;;;6.84;100.00;102576.56;5063714;28;20925;-75
2022/10/12 06:06:07;;;;;;;7.70;3.47;;;;;;;6.81;100.00;102539.50;5041394;28;20190;-75
2022/10/12 06:08:33;;;;;;;7.13;3.60;;;;;;;6.95;100.00;102571.16;5060623;28;20198;-75
2022/10/12 06:10:59;;;;;;;5.00;3.10;;;;;;;6.97;100.00;102574.53;5064542;28;20581;-75
2022/10/12 06:13:25;;;;;;;8.73;3.50;;;;;;;7.04;100.00;102563.34;5064439;28;20484;-75
2022/10/12 06:15:51;;;;;;;5.97;3.87;;;;;;;5.96;100.00;102401.06;5043755;28;20262;-75
2022/10/12 06:18:17;;;;;;;8.20;3.23;;;;;;;6.79;100.00;102562.78;5045743;28;20644;-75
2022/10/12 06:20:51;;;;;;;7.90;3.43;;;;;;;6.54;100.00;102516.06;5063510;28;20437;-75
2022/10/12 06:23:18;;;;;;;6.63;3.30;;;;;;;6.10;100.00;102446.91;5063019;28;20464;-75
2022/10/12 06:25:48;;;;;;;9.63;3.47;;;;;;;6.66;100.00;102549.66;5063634;28;20437;-75
2022/10/12 06:28:14;;;;;;;8.53;3.17;;;;;;;6.83;100.00;102560.69;5040157;28;20534;-75
2022/10/12 06:30:40;;;;;;;6.17;3.17;;;;;;;6.90;100.00;102564.53;5062342;28;20442;-75
2022/10/12 06:33:06;;;;;;;7.50;3.70;;;;;;;6.91;100.00;102556.38;5058864;28;20603;-75
2022/10/12 06:38:01;;;;;;;5.23;3.63;;;;;;;4.35;100.00;102136.06;5052036;22;20310;-78
2022/10/12 06:40:26;;;;;;;5.77;3.30;;;;;;;4.51;100.00;102155.09;5023476;28;20529;-78
2022/10/12 06:42:52;;;;;;;8.03;3.40;;;;;;;4.20;100.00;102127.56;5042358;28;20188;-78
2022/10/12 06:45:18;;;;;;;8.23;3.53;;;;;;;5.07;100.00;102299.41;5027874;28;20580;-78
2022/10/12 06:47:43;;;;;;;7.87;3.53;;;;;;;5.68;100.00;102357.28;5039669;28;20466;-78
2022/10/12 06:50:10;;;;;;;7.80;3.60;;;;;;;5.72;100.00;102404.81;5043972;28;20187;-77
2022/10/12 06:52:36;;;;;;;6.37;3.70;;;;;;;5.81;100.00;102417.34;5041390;28;20199;-78
2022/10/12 06:55:03;;;;;;;5.53;3.10;;;;;;;4.76;100.00;102215.03;5036976;28;20560;-78
2022/10/12 06:57:28;;;;;;;5.23;3.00;;;;;;;6.14;100.00;102449.31;5024222;28;20455;-78
2022/10/12 06:59:54;;;;;;;4.40;2.70;;;;;;;4.54;100.00;102151.31;5022187;28;20445;-79
2022/10/12 07:02:19;;;;;;;10.57;3.03;;;;;;;5.45;100.00;102344.09;5016853;28;20254;-78
2022/10/12 07:04:51;;;;;;;5.97;3.10;;;;;;;6.16;100.00;102424.19;5034947;28;20566;-79
2022/10/12 07:07:17;;;;;;;4.70;2.90;;;;;;;4.37;100.00;102122.66;5024431;28;21236;-79
2022/10/12 07:09:43;;;;;;;8.10;4.33;;;;;;;5.08;100.00;102245.22;5037581;28;20953;-78
2022/10/12 07:12:08;;;;;;;8.00;3.43;;;;;;;6.29;100.00;102403.53;5024400;28;20433;-79
2022/10/12 07:14:34;;;;;;;7.03;3.60;;;;;;;4.96;100.00;102189.44;5037205;28;20214;-79
2022/10/12 07:16:59;;;;;;;11.13;4.90;;;;;;;6.56;100.00;102450.09;5025120;28;20257;-79
2022/10/12 07:19:25;;;;;;;6.20;3.80;;;;;;;5.44;100.00;102294.50;5025210;28;20188;-78
2022/10/12 07:21:50;;;;;;;8.57;4.40;;;;;;;6.04;100.00;102358.66;5043954;28;20200;-78
2022/10/12 07:24:16;;;;;;;9.20;3.90;;;;;;;5.94;100.00;102353.28;5026004;28;20623;-79
2022/10/12 07:26:41;;;;;;;7.27;4.20;;;;;;;4.93;100.00;102151.63;5044502;28;20313;-78
2022/10/12 07:29:07;;;;;;;11.37;4.80;;;;;;;5.35;100.00;102244.72;5029452;28;20654;-79
2022/10/12 07:31:32;;;;;;;9.83;4.23;;;;;;;5.79;100.00;102286.19;5040438;28;20680;-79
2022/10/12 07:33:58;;;;;;;12.17;4.87;;;;;;;5.76;100.00;102293.59;5043199;28;20180;-79
2022/10/12 07:36:23;;;;;;;5.40;3.90;;;;;;;6.38;100.00;102399.22;5043725;28;20232;-79
2022/10/12 07:38:49;;;;;;;8.70;5.07;;;;;;;5.44;100.00;102156.13;5043998;28;20577;-78
2022/10/12 07:41:15;;;;;;;10.37;4.70;;;;;;;6.74;100.00;102396.97;5042596;28;20262;-79
2022/10/12 07:43:41;;;;;;;11.07;4.53;;;;;;;6.01;100.00;102236.41;5025305;28;20204;-78
2022/10/12 07:46:07;;;;;;;6.93;4.10;;;;;;;6.04;100.00;102223.66;5040960;28;20947;-79
2022/10/12 07:48:33;;;;;;;6.13;4.00;;;;;;;5.55;100.00;102133.88;5039710;28;20536;-79
2022/10/12 07:51:09;;;;;;;6.00;4.20;;;;;;;5.96;100.00;102185.34;5029795;28;20431;-78
2022/10/12 07:53:37;;;;;;;7.30;3.60;;;;;;;5.99;100.00;102161.97;5043104;28;21008;-78
2022/10/12 07:56:13;;;;;;;11.73;4.50;;;;;;;6.76;100.00;102302.53;5041920;28;20450;-79
2022/10/12 07:58:40;;;;;;;7.90;4.10;;;;;;;6.04;100.00;102154.38;5039063;28;20513;-78
2022/10/12 08:01:08;;;;;;;11.97;4.07;;;;;;;7.47;100.00;102397.53;5027416;28;20923;-78
2022/10/12 08:03:34;;;;;;;11.63;4.83;;;;;;;7.31;100.00;102360.72;5040767;28;20989;-78
2022/10/12 08:06:06;;;;;;;9.93;3.87;;;;;;;7.28;100.00;102306.78;5025971;28;20474;-78
2022/10/12 08:08:31;;;;;;;6.57;4.67;;;;;;;6.04;100.00;102119.75;5042865;28;20187;-79
2022/10/12 08:11:00;;;;;;;8.93;4.87;;;;;;;8.86;100.00;102575.38;5043072;28;20434;-78
2022/10/12 08:13:25;;;;;;;11.53;5.40;;;;;;;6.38;100.00;102188.69;5043175;28;20183;-79
2022/10/12 08:15:51;;;;;;;11.20;5.30;;;;;;;7.69;100.00;102351.00;5043296;28;20427;-79
2022/10/12 08:18:16;;;;;;;11.00;4.90;;;;;;;6.93;100.00;102225.47;5042856;28;20233;-78
2022/10/12 08:20:42;;;;;;;17.10;4.90;;;;;;;6.85;100.00;102154.16;5041925;28;20194;-78
2022/10/12 08:23:07;;;;;;;12.70;5.10;;;;;;;8.24;100.00;102348.44;5038040;28;20184;-78
2022/10/12 08:25:33;;;;;;;17.07;4.83;;;;;;;9.54;100.00;102565.19;5032848;28;20275;-78
2022/10/12 08:27:59;;;;;;;10.60;4.90;;;;;;;8.15;100.00;102302.06;5023371;28;20208;-78
2022/10/12 08:30:25;;;;;;;9.80;4.50;;;;;;;8.87;100.00;102460.13;5037976;28;20442;-79
2022/10/12 08:32:52;;;;;;;9.37;5.50;;;;;;;7.34;100.00;102135.38;5026590;28;20638;-78
2022/10/12 08:35:17;;;;;;;9.23;5.33;;;;;;;9.90;100.00;102563.41;5025983;28;20908;-78
2022/10/12 08:37:43;;;;;;;11.80;5.10;;;;;;;9.99;100.00;102542.91;5042108;28;20498;-78
2022/10/12 08:40:15;;;;;;;11.20;4.80;;;;;;;7.79;100.00;102180.88;5041773;28;20413;-78
2022/10/12 08:42:58;;;;;;;9.27;4.50;;;;;;;10.09;100.00;102543.66;5026912;28;20187;-77
2022/10/12 08:45:46;;;;;;;14.20;4.87;;;;;;;7.90;100.00;102172.66;5026594;28;20493;-77
2022/10/12 08:48:23;;;;;;;6.83;3.43;;;;;;;9.33;100.00;102339.69;5026298;28;20426;-78
2022/10/12 08:50:53;;;;;;;16.07;4.67;;;;;;;8.28;100.00;102272.34;5039767;28;20461;-78
2022/10/12 08:53:31;;;;;;;7.57;3.90;;;;;;;7.86;100.00;102203.31;5040477;28;20772;-78
2022/10/12 08:55:57;;;;;;;7.33;3.50;;;;;;;8.85;100.00;102328.31;5029964;28;20893;-78
2022/10/12 08:58:34;;;;;;;8.87;3.90;;;;;;;9.86;100.00;102529.03;5025182;28;20442;-77
2022/10/12 09:01:11;;;;;;;13.10;4.43;;;;;;;10.15;100.00;102513.56;5024299;28;20423;-78
2022/10/12 09:03:46;;;;;;;7.50;3.87;;;;;;;10.28;100.00;102513.19;5040764;28;20461;-78
2022/10/12 09:06:27;;;;;;;17.10;4.60;;;;;;;10.38;100.00;102515.75;5039924;28;20430;-78
2022/10/12 09:09:00;;;;;;;12.67;4.30;;;;;;;10.61;100.00;102511.56;5022888;28;20484;-78
2022/10/12 09:11:44;;;;;;;13.90;4.30;;;;;;;10.57;100.00;102539.72;5023408;28;20440;-78
2022/10/12 09:14:22;;;;;;;9.17;3.87;;;;;;;9.53;100.00;102286.78;5037384;28;20521;-78
2022/10/12 09:16:50;;;;;;;13.87;4.20;;;;;;;10.00;100.00;102338.16;5025374;28;20445;-78
2022/10/12 09:19:22;;;;;;;8.50;4.20;;;;;;;10.17;100.00;102369.44;5041764;28;20426;-78
2022/10/12 09:21:49;;;;;;;6.77;4.27;;;;;;;9.68;100.00;102245.84;5024770;28;20481;-79
2022/10/12 09:24:21;;;;;;;10.37;4.10;;;;;;;11.22;100.00;102522.25;5041422;28;20454;-78
2022/10/12 09:26:52;;;;;;;11.73;3.93;;;;;;;9.70;100.00;102273.34;5041363;28;20442;-78
2022/10/12 09:29:23;;;;;;;12.30;5.37;;;;;;;11.59;100.00;102508.44;5040327;28;20438;-80
2022/10/12 09:32:19;;;;;;;10.13;4.10;;;;;;;11.36;100.00;102486.72;5024545;28;20441;-78
2022/10/12 09:34:47;;;;;;;6.93;3.73;;;;;;;10.41;100.00;102298.16;5042626;28;20447;-79
2022/10/12 09:37:24;;;;;;;12.47;4.67;;;;;;;9.66;100.00;102145.19;5039523;28;20497;-77
2022/10/12 09:39:50;;;;;;;9.13;3.90;;;;;;;10.73;100.00;102250.97;5039383;28;20911;-79
2022/10/12 09:42:16;;;;;;;15.60;5.47;;;;;;;10.00;100.00;102166.59;5027946;28;20422;-78
2022/10/12 09:44:45;;;;;;;9.10;4.00;;;;;;;9.18;100.00;102040.38;5025906;28;20219;-78
2022/10/12 09:47:20;;;;;;;11.80;4.60;;;;;;;12.34;100.00;102486.81;5037500;28;20589;-79
2022/10/12 09:49:46;;;;;;;9.03;3.57;;;;;;;11.75;100.00;102395.59;5024644;28;20423;-78
2022/10/12 09:52:14;;;;;;;9.80;3.80;;;;;;;11.71;100.00;102382.63;5016076;28;20436;-78
2022/10/12 09:54:46;;;;;;;13.00;4.20;;;;;;;11.32;100.00;102332.25;5022240;28;20443;-78
2022/10/12 09:57:44;;;;;;;7.43;3.70;;;;;;;11.08;100.00;102260.59;5007957;28;20446;-79
2022/10/12 10:00:31;;;;;;;9.57;3.90;;;;;;;11.66;100.00;102333.94;5027781;28;20540;-78
2022/10/12 10:02:58;;;;;;;13.77;4.70;;;;;;;12.52;100.00;102507.31;5038426;28;20435;-79
2022/10/12 10:05:27;;;;;;;9.40;3.87;;;;;;;10.40;100.00;102163.22;5038102;28;21047;-79
2022/10/12 10:08:11;;;;;;;452.90;26.47;;;;;;;11.23;100.00;102263.44;5033701;28;20473;-80
2022/10/12 10:10:36;;;;;;;19.80;4.97;;;;;;;10.39;100.00;102241.19;5036344;28;20453;-79
2022/10/12 10:13:04;;;;;;;14.73;4.60;;;;;;;10.30;100.00;102223.34;5023790;28;20954;-77
2022/10/12 10:15:33;;;;;;;9.70;3.87;;;;;;;12.05;100.00;102479.28;5038662;28;20187;-78
2022/10/12 10:18:18;;;;;;;5.27;3.10;;;;;;;10.55;100.00;102202.81;5036284;28;20919;-78
2022/10/12 10:20:51;;;;;;;12.30;4.10;;;;;;;10.67;100.00;102176.50;5037303;28;20418;-78
2022/10/12 10:23:50;;;;;;;13.77;3.87;;;;;;;12.33;100.00;102477.09;5040064;28;20485;-78
2022/10/12 10:26:18;;;;;;;12.13;3.77;;;;;;;11.88;100.00;102364.69;5024062;28;20503;-78
2022/10/12 10:28:45;;;;;;;15.80;4.60;;;;;;;11.62;100.00;102372.91;5023971;28;20438;-79
2022/10/12 10:31:20;;;;;;;9.50;3.83;;;;;;;12.28;100.00;102467.84;5022378;28;20545;-79
2022/10/12 10:34:17;;;;;;;11.70;4.20;;;;;;;10.71;100.00;102191.28;5024115;28;20433;-78
2022/10/12 10:36:49;;;;;;;19.27;4.13;;;;;;;10.77;100.00;102212.06;5038960;28;20467;-77
2022/10/12 10:39:31;;;;;;;8.57;3.60;;;;;;;11.15;100.00;102226.66;5025956;28;20517;-78
2022/10/12 10:42:08;;;;;;;10.27;4.43;;;;;;;11.19;100.00;102193.09;5031901;28;25103;-78
2022/10/12 10:44:35;;;;;;;12.60;4.30;;;;;;;11.18;100.00;102167.25;5022575;28;20479;-79
2022/10/12 10:47:08;;;;;;;7.80;3.17;;;;;;;12.37;100.00;102362.72;5019510;28;20454;-78
2022/10/12 10:49:41;;;;;;;10.13;3.40;;;;;;;12.03;100.00;102263.47;5021152;28;20426;-79
2022/10/12 10:52:37;;;;;;;12.20;3.83;;;;;;;11.29;100.00;102140.03;5039741;28;20986;-78
2022/10/12 10:55:15;;;;;;;11.30;3.77;;;;;;;12.37;100.00;102263.16;5039877;28;20517;-79
2022/10/12 10:57:48;;;;;;;10.57;3.33;;;;;;;12.97;100.00;102314.63;5020425;28;20461;-77
2022/10/12 11:00:21;;;;;;;10.50;3.40;;;;;;;12.60;100.00;102257.81;5034216;28;20488;-78
2022/10/12 11:02:55;;;;;;;8.00;2.57;;;;;;;12.00;100.00;102148.19;5024970;28;20440;-79
2022/10/12 11:05:36;;;;;;;8.70;3.50;;;;;;;14.02;100.00;102422.66;5038262;28;20466;-78
2022/10/12 11:08:11;;;;;;;8.47;2.73;;;;;;;13.30;100.00;102332.25;5039245;28;20427;-76
2022/10/12 11:11:01;;;;;;;6.57;2.17;;;;;;;14.05;100.00;102413.34;5028953;28;20940;-78
2022/10/12 11:13:37;;;;;;;8.30;2.73;;;;;;;12.49;100.00;102107.50;5024483;28;20422;-78
2022/10/12 11:16:06;;;;;;;6.00;2.37;;;;;;;13.15;100.00;102234.34;5036914;28;20875;-78
2022/10/12 11:18:45;;;;;;;3.23;2.10;;;;;;;12.92;100.00;102193.16;5037497;28;20465;-78
2022/10/12 11:21:19;;;;;;;13.97;3.33;;;;;;;14.38;100.00;102425.50;5028355;28;20441;-78
2022/10/12 11:23:52;;;;;;;12.07;3.00;;;;;;;14.65;100.00;102413.22;5040170;28;20462;-76
2022/10/12 11:26:28;;;;;;;8.87;2.80;;;;;;;14.57;100.00;102388.19;5039933;28;20956;-78
2022/10/12 11:28:56;;;;;;;6.80;2.70;;;;;;;13.04;100.00;102097.41;5040678;28;20498;-78
2022/10/12 11:31:29;;;;;;;8.50;2.77;;;;;;;13.63;100.00;102244.91;5044038;28;20426;-79
2022/10/12 11:33:58;;;;;;;13.57;3.27;;;;;;;14.83;100.00;102391.22;5041924;28;20463;-78
2022/10/12 11:36:26;;;;;;;7.00;2.67;;;;;;;13.32;100.00;102152.38;5028335;28;20548;-78
2022/10/12 11:38:59;;;;;;;11.13;2.80;;;;;;;14.85;100.00;102381.06;5037463;28;20989;-79